CheckWX is a tool to help pilots better visualize weather data.  It is not intended as a substitute for an official pre-flight weather briefing.

10:46:13 UTC

SEQM TAF
Mariscal Sucre International Airport
Quito, Ecuador
SEQM 260430Z 2606/2706 00000KT 3000 BR BKN004 TEMPO 2609/2611 RA FM261300 VRB03KT 9999 SCT030 BKN300 BECMG 2618/2619 36012KT FM270000 03004KT 6000 BCFG FEW005 BKN020 TX24/2619Z TN11/2611Z

Jun-26@
06:00 UTC

Jun-26 @ 06:00 UTC

Jun-26@
13:00 UTC

Jun-26 @ 13:00 UTC

SEQM 260430Z 2606/2706 00000KT 3000 BR BKN004
Conditions
Mist
Cloud Levels
  • Broken at 400' AGL

Jun-26@
09:00 UTC

Jun-26 @ 09:00 UTC

Jun-26@
11:00 UTC

Jun-26 @ 11:00 UTC

TEMPO 2609/2611 RA

Temporary

Temporary Changes expected for less than half the time period

Conditions
Rain

Jun-26@
13:00 UTC

Jun-26 @ 13:00 UTC

Jun-26@
18:00 UTC

Jun-26 @ 18:00 UTC

FM261300 VRB03KT 9999 SCT030 BKN300

From

From Standard forecast or significant change

Wind
  • Variable at 3 KTS
Cloud Levels
  • Scattered at 3,000' AGL
  • Broken at 30,000' AGL

Jun-26@
18:00 UTC

Jun-26 @ 18:00 UTC

Jun-27@
00:00 UTC

Jun-27 @ 00:00 UTC

BECMG 2618/2619 36012KT

Becoming

Becoming Conditions expected by Wed, Jun 26, 2019 @ 19:00 UTC

Wind
  • 360° at 12 KTS
Cloud Levels
  • Scattered at 3,000' AGL
  • Broken at 30,000' AGL

Jun-27@
00:00 UTC

Jun-27 @ 00:00 UTC

Jun-27@
06:00 UTC

Jun-27 @ 06:00 UTC

FM270000 03004KT 6000 BCFG FEW005 BKN020 TX24/2619Z TN11/2611Z

From

From Standard forecast or significant change

Wind
  • 030° at 4 KTS
Conditions
Patches of Fog
Cloud Levels
  • Few at 500' AGL
  • Broken at 2,000' AGL